sensor_id;sensor_type;location;lat;lon;timestamp;P1;durP1;ratioP1;P2;durP2;ratioP2
76131;SDS011;64877;50.994;13.650;2023-05-10T00:01:51;4.88;;;1.75;;
76131;SDS011;64877;50.994;13.650;2023-05-10T00:04:17;3.20;;;1.60;;
76131;SDS011;64877;50.994;13.650;2023-05-10T00:06:42;4.10;;;1.60;;
76131;SDS011;64877;50.994;13.650;2023-05-10T00:09:07;3.42;;;1.70;;
76131;SDS011;64877;50.994;13.650;2023-05-10T00:11:33;4.53;;;1.55;;
76131;SDS011;64877;50.994;13.650;2023-05-10T00:13:58;4.30;;;1.83;;
76131;SDS011;64877;50.994;13.650;2023-05-10T00:16:24;2.97;;;1.52;;
76131;SDS011;64877;50.994;13.650;2023-05-10T00:18:49;4.82;;;1.58;;
76131;SDS011;64877;50.994;13.650;2023-05-10T00:21:14;4.15;;;1.77;;
76131;SDS011;64877;50.994;13.650;2023-05-10T00:23:40;4.07;;;1.83;;
76131;SDS011;64877;50.994;13.650;2023-05-10T00:26:05;3.47;;;1.95;;
76131;SDS011;64877;50.994;13.650;2023-05-10T00:28:30;4.18;;;1.50;;
76131;SDS011;64877;50.994;13.650;2023-05-10T00:30:56;4.13;;;1.73;;
76131;SDS011;64877;50.994;13.650;2023-05-10T00:33:21;2.55;;;1.58;;
76131;SDS011;64877;50.994;13.650;2023-05-10T00:35:47;2.55;;;1.60;;
76131;SDS011;64877;50.994;13.650;2023-05-10T00:38:12;4.22;;;2.00;;
76131;SDS011;64877;50.994;13.650;2023-05-10T00:40:38;3.00;;;1.52;;
76131;SDS011;64877;50.994;13.650;2023-05-10T00:43:03;3.03;;;1.58;;
76131;SDS011;64877;50.994;13.650;2023-05-10T00:45:30;3.15;;;1.40;;
76131;SDS011;64877;50.994;13.650;2023-05-10T00:47:58;3.58;;;1.50;;
76131;SDS011;64877;50.994;13.650;2023-05-10T00:50:26;4.82;;;1.92;;
76131;SDS011;64877;50.994;13.650;2023-05-10T00:52:51;3.25;;;1.52;;
76131;SDS011;64877;50.994;13.650;2023-05-10T00:55:17;4.03;;;1.50;;
76131;SDS011;64877;50.994;13.650;2023-05-10T00:57:43;4.60;;;1.70;;
76131;SDS011;64877;50.994;13.650;2023-05-10T01:00:09;3.20;;;1.75;;
76131;SDS011;64877;50.994;13.650;2023-05-10T01:02:36;5.25;;;1.92;;
76131;SDS011;64877;50.994;13.650;2023-05-10T01:05:02;3.97;;;1.70;;
76131;SDS011;64877;50.994;13.650;2023-05-10T01:07:28;3.47;;;1.45;;
76131;SDS011;64877;50.994;13.650;2023-05-10T01:09:54;3.28;;;1.45;;
76131;SDS011;64877;50.994;13.650;2023-05-10T01:12:19;3.13;;;1.85;;
76131;SDS011;64877;50.994;13.650;2023-05-10T01:14:45;3.95;;;1.70;;
76131;SDS011;64877;50.994;13.650;2023-05-10T01:17:10;6.95;;;2.08;;
76131;SDS011;64877;50.994;13.650;2023-05-10T01:19:37;2.42;;;1.67;;
76131;SDS011;64877;50.994;13.650;2023-05-10T01:33:26;2.58;;;1.40;;
76131;SDS011;64877;50.994;13.650;2023-05-10T01:36:08;3.80;;;1.60;;
76131;SDS011;64877;50.994;13.650;2023-05-10T01:39:11;3.63;;;1.67;;
76131;SDS011;64877;50.994;13.650;2023-05-10T01:41:49;5.25;;;1.90;;
76131;SDS011;64877;50.994;13.650;2023-05-10T01:47:07;2.90;;;1.73;;
76131;SDS011;64877;50.994;13.650;2023-05-10T01:49:40;2.75;;;1.77;;
76131;SDS011;64877;50.994;13.650;2023-05-10T01:52:12;6.18;;;1.88;;
76131;SDS011;64877;50.994;13.650;2023-05-10T01:54:41;3.17;;;1.70;;
76131;SDS011;64877;50.994;13.650;2023-05-10T01:57:09;4.43;;;1.60;;
76131;SDS011;64877;50.994;13.650;2023-05-10T01:59:39;2.85;;;1.50;;
76131;SDS011;64877;50.994;13.650;2023-05-10T02:02:08;6.15;;;1.30;;
76131;SDS011;64877;50.994;13.650;2023-05-10T02:04:37;2.83;;;1.60;;
76131;SDS011;64877;50.994;13.650;2023-05-10T02:07:04;6.80;;;1.98;;
76131;SDS011;64877;50.994;13.650;2023-05-10T02:09:32;6.65;;;1.63;;
76131;SDS011;64877;50.994;13.650;2023-05-10T02:11:59;3.13;;;1.70;;
76131;SDS011;64877;50.994;13.650;2023-05-10T02:14:27;5.53;;;1.55;;
76131;SDS011;64877;50.994;13.650;2023-05-10T02:16:55;2.50;;;1.50;;
76131;SDS011;64877;50.994;13.650;2023-05-10T02:19:23;2.63;;;1.40;;
76131;SDS011;64877;50.994;13.650;2023-05-10T02:21:50;3.30;;;1.63;;
76131;SDS011;64877;50.994;13.650;2023-05-10T02:24:16;2.72;;;1.30;;
76131;SDS011;64877;50.994;13.650;2023-05-10T02:26:43;2.67;;;1.38;;
76131;SDS011;64877;50.994;13.650;2023-05-10T02:29:10;5.05;;;1.42;;
76131;SDS011;64877;50.994;13.650;2023-05-10T02:31:37;5.15;;;1.73;;
76131;SDS011;64877;50.994;13.650;2023-05-10T02:34:03;2.50;;;1.45;;
76131;SDS011;64877;50.994;13.650;2023-05-10T02:36:32;2.78;;;1.30;;
76131;SDS011;64877;50.994;13.650;2023-05-10T02:38:58;2.92;;;1.50;;
76131;SDS011;64877;50.994;13.650;2023-05-10T02:41:26;4.05;;;1.88;;
76131;SDS011;64877;50.994;13.650;2023-05-10T02:43:56;3.65;;;1.80;;
76131;SDS011;64877;50.994;13.650;2023-05-10T02:46:24;4.55;;;1.80;;
76131;SDS011;64877;50.994;13.650;2023-05-10T02:48:50;3.97;;;1.50;;
76131;SDS011;64877;50.994;13.650;2023-05-10T02:51:16;4.38;;;1.60;;
76131;SDS011;64877;50.994;13.650;2023-05-10T02:53:44;3.25;;;1.50;;
76131;SDS011;64877;50.994;13.650;2023-05-10T02:56:13;7.22;;;1.80;;
76131;SDS011;64877;50.994;13.650;2023-05-10T02:58:45;6.20;;;1.85;;
76131;SDS011;64877;50.994;13.650;2023-05-10T03:01:11;2.53;;;1.63;;
76131;SDS011;64877;50.994;13.650;2023-05-10T03:03:36;4.18;;;1.58;;
76131;SDS011;64877;50.994;13.650;2023-05-10T03:06:01;2.97;;;1.55;;
76131;SDS011;64877;50.994;13.650;2023-05-10T03:08:27;3.35;;;1.80;;
76131;SDS011;64877;50.994;13.650;2023-05-10T03:10:56;3.28;;;1.77;;
76131;SDS011;64877;50.994;13.650;2023-05-10T03:16:47;5.32;;;1.80;;
76131;SDS011;64877;50.994;13.650;2023-05-10T03:19:40;3.13;;;1.30;;
76131;SDS011;64877;50.994;13.650;2023-05-10T03:22:10;4.30;;;1.38;;
76131;SDS011;64877;50.994;13.650;2023-05-10T03:24:44;3.90;;;1.75;;
76131;SDS011;64877;50.994;13.650;2023-05-10T03:27:11;5.38;;;1.48;;
76131;SDS011;64877;50.994;13.650;2023-05-10T03:29:39;3.17;;;1.48;;
76131;SDS011;64877;50.994;13.650;2023-05-10T03:32:05;4.25;;;1.77;;
76131;SDS011;64877;50.994;13.650;2023-05-10T03:34:30;3.10;;;1.67;;
76131;SDS011;64877;50.994;13.650;2023-05-10T03:36:56;4.53;;;1.77;;
76131;SDS011;64877;50.994;13.650;2023-05-10T03:39:22;6.43;;;1.45;;
76131;SDS011;64877;50.994;13.650;2023-05-10T03:41:47;3.95;;;1.73;;
76131;SDS011;64877;50.994;13.650;2023-05-10T03:44:12;5.70;;;1.65;;
76131;SDS011;64877;50.994;13.650;2023-05-10T03:46:38;4.32;;;1.50;;
76131;SDS011;64877;50.994;13.650;2023-05-10T03:49:03;7.25;;;2.00;;
76131;SDS011;64877;50.994;13.650;2023-05-10T03:51:29;3.28;;;1.88;;
76131;SDS011;64877;50.994;13.650;2023-05-10T03:53:56;3.05;;;1.60;;
76131;SDS011;64877;50.994;13.650;2023-05-10T03:56:21;6.65;;;2.00;;
76131;SDS011;64877;50.994;13.650;2023-05-10T03:58:46;4.10;;;1.95;;
76131;SDS011;64877;50.994;13.650;2023-05-10T04:01:12;3.83;;;1.50;;
76131;SDS011;64877;50.994;13.650;2023-05-10T04:03:37;2.83;;;1.40;;
76131;SDS011;64877;50.994;13.650;2023-05-10T04:06:03;3.15;;;1.35;;
76131;SDS011;64877;50.994;13.650;2023-05-10T04:08:29;4.28;;;1.50;;
76131;SDS011;64877;50.994;13.650;2023-05-10T04:11:04;4.43;;;1.92;;
76131;SDS011;64877;50.994;13.650;2023-05-10T04:13:33;3.00;;;1.60;;
76131;SDS011;64877;50.994;13.650;2023-05-10T04:15:59;3.33;;;1.50;;
76131;SDS011;64877;50.994;13.650;2023-05-10T04:18:25;4.13;;;2.22;;
76131;SDS011;64877;50.994;13.650;2023-05-10T04:20:50;4.57;;;1.70;;
76131;SDS011;64877;50.994;13.650;2023-05-10T04:23:16;6.40;;;1.85;;
76131;SDS011;64877;50.994;13.650;2023-05-10T04:25:41;3.92;;;2.08;;
76131;SDS011;64877;50.994;13.650;2023-05-10T04:28:07;6.22;;;1.58;;
76131;SDS011;64877;50.994;13.650;2023-05-10T04:30:33;3.20;;;1.60;;
76131;SDS011;64877;50.994;13.650;2023-05-10T04:32:58;4.70;;;1.90;;
76131;SDS011;64877;50.994;13.650;2023-05-10T04:35:23;2.90;;;1.80;;
76131;SDS011;64877;50.994;13.650;2023-05-10T04:37:49;5.43;;;2.08;;
76131;SDS011;64877;50.994;13.650;2023-05-10T04:40:14;5.07;;;1.98;;
76131;SDS011;64877;50.994;13.650;2023-05-10T04:42:40;5.53;;;2.13;;
76131;SDS011;64877;50.994;13.650;2023-05-10T04:45:06;3.38;;;1.58;;
76131;SDS011;64877;50.994;13.650;2023-05-10T04:47:32;3.83;;;1.67;;
76131;SDS011;64877;50.994;13.650;2023-05-10T04:49:57;4.22;;;1.50;;
76131;SDS011;64877;50.994;13.650;2023-05-10T04:52:23;2.92;;;1.60;;
76131;SDS011;64877;50.994;13.650;2023-05-10T04:54:49;4.10;;;1.98;;
76131;SDS011;64877;50.994;13.650;2023-05-10T04:57:14;3.78;;;1.85;;
76131;SDS011;64877;50.994;13.650;2023-05-10T04:59:40;4.25;;;2.00;;
76131;SDS011;64877;50.994;13.650;2023-05-10T05:02:05;4.10;;;1.38;;
76131;SDS011;64877;50.994;13.650;2023-05-10T05:04:30;3.35;;;1.33;;
76131;SDS011;64877;50.994;13.650;2023-05-10T05:06:56;2.88;;;1.60;;
76131;SDS011;64877;50.994;13.650;2023-05-10T05:09:22;3.10;;;1.80;;
76131;SDS011;64877;50.994;13.650;2023-05-10T05:11:47;4.53;;;1.80;;
76131;SDS011;64877;50.994;13.650;2023-05-10T05:14:13;3.03;;;1.33;;
76131;SDS011;64877;50.994;13.650;2023-05-10T05:16:38;3.38;;;1.50;;
76131;SDS011;64877;50.994;13.650;2023-05-10T05:19:04;3.47;;;1.52;;
76131;SDS011;64877;50.994;13.650;2023-05-10T05:21:29;2.85;;;1.30;;
76131;SDS011;64877;50.994;13.650;2023-05-10T05:23:55;4.50;;;1.55;;
76131;SDS011;64877;50.994;13.650;2023-05-10T05:26:20;3.10;;;1.30;;
76131;SDS011;64877;50.994;13.650;2023-05-10T05:28:46;1.92;;;1.17;;
76131;SDS011;64877;50.994;13.650;2023-05-10T05:31:13;2.30;;;1.35;;
76131;SDS011;64877;50.994;13.650;2023-05-10T05:33:38;5.03;;;1.73;;
76131;SDS011;64877;50.994;13.650;2023-05-10T05:36:05;2.38;;;1.30;;
76131;SDS011;64877;50.994;13.650;2023-05-10T05:38:30;3.05;;;1.38;;
76131;SDS011;64877;50.994;13.650;2023-05-10T05:40:56;2.50;;;1.30;;
76131;SDS011;64877;50.994;13.650;2023-05-10T05:43:22;2.53;;;1.35;;
76131;SDS011;64877;50.994;13.650;2023-05-10T05:45:47;5.00;;;1.23;;
76131;SDS011;64877;50.994;13.650;2023-05-10T05:48:13;4.50;;;1.40;;
76131;SDS011;64877;50.994;13.650;2023-05-10T05:50:38;3.42;;;1.20;;
76131;SDS011;64877;50.994;13.650;2023-05-10T05:53:03;2.75;;;1.40;;
76131;SDS011;64877;50.994;13.650;2023-05-10T05:55:29;2.45;;;1.40;;
76131;SDS011;64877;50.994;13.650;2023-05-10T05:57:56;3.50;;;1.73;;
76131;SDS011;64877;50.994;13.650;2023-05-10T06:00:22;4.00;;;1.20;;
76131;SDS011;64877;50.994;13.650;2023-05-10T06:02:47;3.85;;;1.33;;
76131;SDS011;64877;50.994;13.650;2023-05-10T06:05:13;4.10;;;1.40;;
76131;SDS011;64877;50.994;13.650;2023-05-10T06:07:39;3.38;;;1.05;;
76131;SDS011;64877;50.994;13.650;2023-05-10T06:10:07;2.63;;;1.40;;
76131;SDS011;64877;50.994;13.650;2023-05-10T06:12:33;2.75;;;1.33;;
76131;SDS011;64877;50.994;13.650;2023-05-10T06:14:58;3.58;;;1.25;;
76131;SDS011;64877;50.994;13.650;2023-05-10T06:17:23;4.55;;;1.50;;
76131;SDS011;64877;50.994;13.650;2023-05-10T06:19:49;4.60;;;2.08;;
76131;SDS011;64877;50.994;13.650;2023-05-10T06:22:14;5.05;;;1.20;;
76131;SDS011;64877;50.994;13.650;2023-05-10T06:24:40;3.85;;;1.40;;
76131;SDS011;64877;50.994;13.650;2023-05-10T06:27:06;2.30;;;1.48;;
76131;SDS011;64877;50.994;13.650;2023-05-10T06:29:31;3.33;;;1.30;;
76131;SDS011;64877;50.994;13.650;2023-05-10T06:31:57;3.92;;;1.40;;
76131;SDS011;64877;50.994;13.650;2023-05-10T06:34:22;3.30;;;1.27;;
76131;SDS011;64877;50.994;13.650;2023-05-10T06:36:48;4.65;;;1.50;;
76131;SDS011;64877;50.994;13.650;2023-05-10T06:39:13;3.33;;;1.45;;
76131;SDS011;64877;50.994;13.650;2023-05-10T06:41:38;3.78;;;1.30;;
76131;SDS011;64877;50.994;13.650;2023-05-10T06:44:04;6.68;;;1.30;;
76131;SDS011;64877;50.994;13.650;2023-05-10T06:46:30;2.38;;;1.30;;
76131;SDS011;64877;50.994;13.650;2023-05-10T06:48:55;4.18;;;1.40;;
76131;SDS011;64877;50.994;13.650;2023-05-10T06:51:20;2.33;;;1.40;;
76131;SDS011;64877;50.994;13.650;2023-05-10T06:53:46;3.90;;;1.23;;
76131;SDS011;64877;50.994;13.650;2023-05-10T06:56:12;3.65;;;1.42;;
76131;SDS011;64877;50.994;13.650;2023-05-10T06:58:37;2.67;;;1.27;;
76131;SDS011;64877;50.994;13.650;2023-05-10T07:01:03;5.13;;;1.40;;
76131;SDS011;64877;50.994;13.650;2023-05-10T07:03:30;4.60;;;1.52;;
76131;SDS011;64877;50.994;13.650;2023-05-10T07:06:02;4.38;;;1.63;;
76131;SDS011;64877;50.994;13.650;2023-05-10T07:08:31;2.72;;;1.50;;
76131;SDS011;64877;50.994;13.650;2023-05-10T07:11:01;4.70;;;1.30;;
76131;SDS011;64877;50.994;13.650;2023-05-10T07:13:30;3.70;;;1.50;;
76131;SDS011;64877;50.994;13.650;2023-05-10T07:15:56;3.88;;;1.40;;
76131;SDS011;64877;50.994;13.650;2023-05-10T07:18:23;7.05;;;1.42;;
76131;SDS011;64877;50.994;13.650;2023-05-10T07:20:48;2.97;;;1.40;;
76131;SDS011;64877;50.994;13.650;2023-05-10T07:23:14;4.35;;;1.60;;
76131;SDS011;64877;50.994;13.650;2023-05-10T07:25:39;2.53;;;1.50;;
76131;SDS011;64877;50.994;13.650;2023-05-10T07:28:05;3.53;;;1.40;;
76131;SDS011;64877;50.994;13.650;2023-05-10T07:30:30;4.25;;;1.40;;
76131;SDS011;64877;50.994;13.650;2023-05-10T07:32:55;3.15;;;1.30;;
76131;SDS011;64877;50.994;13.650;2023-05-10T07:35:21;3.53;;;1.27;;
76131;SDS011;64877;50.994;13.650;2023-05-10T07:37:46;5.07;;;1.42;;
76131;SDS011;64877;50.994;13.650;2023-05-10T07:40:11;3.95;;;1.40;;
76131;SDS011;64877;50.994;13.650;2023-05-10T07:42:37;2.28;;;1.20;;
76131;SDS011;64877;50.994;13.650;2023-05-10T07:45:03;2.55;;;1.15;;
76131;SDS011;64877;50.994;13.650;2023-05-10T07:47:28;4.47;;;1.27;;
76131;SDS011;64877;50.994;13.650;2023-05-10T07:49:54;4.40;;;1.25;;
76131;SDS011;64877;50.994;13.650;2023-05-10T07:52:19;5.80;;;2.53;;
76131;SDS011;64877;50.994;13.650;2023-05-10T07:54:45;3.33;;;1.33;;
76131;SDS011;64877;50.994;13.650;2023-05-10T07:57:10;3.40;;;1.33;;
76131;SDS011;64877;50.994;13.650;2023-05-10T07:59:36;6.55;;;1.17;;
76131;SDS011;64877;50.994;13.650;2023-05-10T08:02:01;3.72;;;1.25;;
76131;SDS011;64877;50.994;13.650;2023-05-10T08:04:27;5.03;;;1.30;;
76131;SDS011;64877;50.994;13.650;2023-05-10T08:06:52;4.75;;;1.17;;
76131;SDS011;64877;50.994;13.650;2023-05-10T08:09:18;4.20;;;1.50;;
76131;SDS011;64877;50.994;13.650;2023-05-10T08:11:48;2.70;;;1.40;;
76131;SDS011;64877;50.994;13.650;2023-05-10T08:14:13;8.25;;;1.33;;
76131;SDS011;64877;50.994;13.650;2023-05-10T08:16:39;3.28;;;1.30;;
76131;SDS011;64877;50.994;13.650;2023-05-10T08:19:04;2.67;;;1.10;;
76131;SDS011;64877;50.994;13.650;2023-05-10T08:21:30;3.42;;;1.20;;
76131;SDS011;64877;50.994;13.650;2023-05-10T08:23:56;2.28;;;1.10;;
76131;SDS011;64877;50.994;13.650;2023-05-10T08:26:21;4.28;;;1.40;;
76131;SDS011;64877;50.994;13.650;2023-05-10T08:28:47;2.50;;;1.30;;
76131;SDS011;64877;50.994;13.650;2023-05-10T08:31:12;4.65;;;1.30;;
76131;SDS011;64877;50.994;13.650;2023-05-10T08:33:37;7.30;;;1.48;;
76131;SDS011;64877;50.994;13.650;2023-05-10T08:36:03;2.88;;;1.35;;
76131;SDS011;64877;50.994;13.650;2023-05-10T08:38:28;3.28;;;1.20;;
76131;SDS011;64877;50.994;13.650;2023-05-10T08:40:54;4.55;;;1.38;;
76131;SDS011;64877;50.994;13.650;2023-05-10T08:43:24;4.43;;;1.83;;
76131;SDS011;64877;50.994;13.650;2023-05-10T08:45:53;6.00;;;1.50;;
76131;SDS011;64877;50.994;13.650;2023-05-10T08:48:19;4.40;;;1.40;;
76131;SDS011;64877;50.994;13.650;2023-05-10T08:50:47;3.47;;;1.50;;
76131;SDS011;64877;50.994;13.650;2023-05-10T08:53:17;3.47;;;1.40;;
76131;SDS011;64877;50.994;13.650;2023-05-10T08:55:44;4.07;;;1.35;;
76131;SDS011;64877;50.994;13.650;2023-05-10T08:58:09;3.92;;;1.50;;
76131;SDS011;64877;50.994;13.650;2023-05-10T09:00:35;3.47;;;1.55;;
76131;SDS011;64877;50.994;13.650;2023-05-10T09:03:03;2.65;;;1.55;;
76131;SDS011;64877;50.994;13.650;2023-05-10T09:05:29;6.40;;;1.60;;
76131;SDS011;64877;50.994;13.650;2023-05-10T09:07:54;5.72;;;1.42;;
76131;SDS011;64877;50.994;13.650;2023-05-10T09:10:20;4.05;;;1.77;;
76131;SDS011;64877;50.994;13.650;2023-05-10T09:12:46;7.53;;;2.30;;
76131;SDS011;64877;50.994;13.650;2023-05-10T09:17:44;2.88;;;1.58;;
76131;SDS011;64877;50.994;13.650;2023-05-10T09:20:09;3.55;;;1.83;;
76131;SDS011;64877;50.994;13.650;2023-05-10T09:22:35;3.85;;;1.90;;
76131;SDS011;64877;50.994;13.650;2023-05-10T09:25:19;3.95;;;1.65;;
76131;SDS011;64877;50.994;13.650;2023-05-10T09:27:45;3.67;;;1.73;;
76131;SDS011;64877;50.994;13.650;2023-05-10T09:30:24;5.60;;;1.83;;
76131;SDS011;64877;50.994;13.650;2023-05-10T09:32:51;4.20;;;1.77;;
76131;SDS011;64877;50.994;13.650;2023-05-10T09:35:18;3.15;;;1.92;;
76131;SDS011;64877;50.994;13.650;2023-05-10T09:37:46;4.70;;;1.85;;
76131;SDS011;64877;50.994;13.650;2023-05-10T09:40:14;5.32;;;1.63;;
76131;SDS011;64877;50.994;13.650;2023-05-10T09:43:00;4.15;;;1.63;;
76131;SDS011;64877;50.994;13.650;2023-05-10T09:45:28;5.05;;;2.05;;
76131;SDS011;64877;50.994;13.650;2023-05-10T09:47:55;3.40;;;2.10;;
76131;SDS011;64877;50.994;13.650;2023-05-10T09:50:21;4.53;;;1.83;;
76131;SDS011;64877;50.994;13.650;2023-05-10T09:52:51;3.58;;;1.63;;
76131;SDS011;64877;50.994;13.650;2023-05-10T09:55:22;2.53;;;1.70;;
76131;SDS011;64877;50.994;13.650;2023-05-10T09:57:49;2.97;;;1.60;;
76131;SDS011;64877;50.994;13.650;2023-05-10T10:00:23;4.40;;;2.13;;
76131;SDS011;64877;50.994;13.650;2023-05-10T10:02:59;4.18;;;2.10;;
76131;SDS011;64877;50.994;13.650;2023-05-10T10:05:28;3.92;;;1.70;;
76131;SDS011;64877;50.994;13.650;2023-05-10T10:07:58;4.45;;;1.75;;
76131;SDS011;64877;50.994;13.650;2023-05-10T10:10:24;3.78;;;1.90;;
76131;SDS011;64877;50.994;13.650;2023-05-10T10:12:51;3.13;;;2.10;;
76131;SDS011;64877;50.994;13.650;2023-05-10T10:15:17;3.72;;;2.10;;
76131;SDS011;64877;50.994;13.650;2023-05-10T10:17:43;4.25;;;1.65;;
76131;SDS011;64877;50.994;13.650;2023-05-10T10:20:09;7.20;;;2.20;;
76131;SDS011;64877;50.994;13.650;2023-05-10T10:22:34;3.42;;;1.80;;
76131;SDS011;64877;50.994;13.650;2023-05-10T10:25:01;4.40;;;2.00;;
76131;SDS011;64877;50.994;13.650;2023-05-10T10:32:48;4.18;;;2.10;;
76131;SDS011;64877;50.994;13.650;2023-05-10T10:35:34;3.35;;;1.90;;
76131;SDS011;64877;50.994;13.650;2023-05-10T10:38:01;3.05;;;2.10;;
76131;SDS011;64877;50.994;13.650;2023-05-10T10:40:27;3.95;;;2.22;;
76131;SDS011;64877;50.994;13.650;2023-05-10T10:42:54;4.38;;;2.25;;
76131;SDS011;64877;50.994;13.650;2023-05-10T10:45:21;3.42;;;2.10;;
76131;SDS011;64877;50.994;13.650;2023-05-10T10:47:47;5.22;;;2.28;;
76131;SDS011;64877;50.994;13.650;2023-05-10T10:50:13;3.83;;;2.05;;
76131;SDS011;64877;50.994;13.650;2023-05-10T10:52:42;3.40;;;1.88;;
76131;SDS011;64877;50.994;13.650;2023-05-10T10:55:18;4.88;;;2.30;;
76131;SDS011;64877;50.994;13.650;2023-05-10T10:57:54;6.25;;;2.13;;
76131;SDS011;64877;50.994;13.650;2023-05-10T11:00:28;5.55;;;2.00;;
76131;SDS011;64877;50.994;13.650;2023-05-10T11:08:17;5.15;;;1.90;;
76131;SDS011;64877;50.994;13.650;2023-05-10T11:13:43;4.50;;;2.08;;
76131;SDS011;64877;50.994;13.650;2023-05-10T11:16:13;3.75;;;2.33;;
76131;SDS011;64877;50.994;13.650;2023-05-10T11:19:16;3.33;;;1.92;;
76131;SDS011;64877;50.994;13.650;2023-05-10T11:21:51;5.78;;;2.30;;
76131;SDS011;64877;50.994;13.650;2023-05-10T11:24:36;3.72;;;2.05;;
76131;SDS011;64877;50.994;13.650;2023-05-10T11:27:01;3.75;;;2.47;;
76131;SDS011;64877;50.994;13.650;2023-05-10T11:29:27;5.03;;;2.22;;
76131;SDS011;64877;50.994;13.650;2023-05-10T11:31:53;2.97;;;1.95;;
76131;SDS011;64877;50.994;13.650;2023-05-10T11:34:26;4.22;;;2.10;;
76131;SDS011;64877;50.994;13.650;2023-05-10T11:36:53;3.58;;;2.33;;
76131;SDS011;64877;50.994;13.650;2023-05-10T11:39:19;3.47;;;2.30;;
76131;SDS011;64877;50.994;13.650;2023-05-10T11:41:47;4.97;;;2.08;;
76131;SDS011;64877;50.994;13.650;2023-05-10T11:44:13;4.68;;;2.17;;
76131;SDS011;64877;50.994;13.650;2023-05-10T11:46:39;3.80;;;2.30;;
76131;SDS011;64877;50.994;13.650;2023-05-10T11:49:07;5.53;;;2.65;;
76131;SDS011;64877;50.994;13.650;2023-05-10T11:51:33;5.88;;;2.38;;
76131;SDS011;64877;50.994;13.650;2023-05-10T11:54:00;2.83;;;1.80;;
76131;SDS011;64877;50.994;13.650;2023-05-10T11:56:27;5.82;;;2.10;;
76131;SDS011;64877;50.994;13.650;2023-05-10T11:58:56;3.78;;;2.47;;
76131;SDS011;64877;50.994;13.650;2023-05-10T12:01:22;3.25;;;1.80;;
76131;SDS011;64877;50.994;13.650;2023-05-10T12:03:49;4.90;;;2.10;;
76131;SDS011;64877;50.994;13.650;2023-05-10T12:06:15;4.82;;;1.65;;
76131;SDS011;64877;50.994;13.650;2023-05-10T12:08:46;3.92;;;1.98;;
76131;SDS011;64877;50.994;13.650;2023-05-10T12:11:13;5.38;;;2.22;;
76131;SDS011;64877;50.994;13.650;2023-05-10T12:13:41;3.97;;;2.10;;
76131;SDS011;64877;50.994;13.650;2023-05-10T12:16:18;6.13;;;2.17;;
76131;SDS011;64877;50.994;13.650;2023-05-10T12:18:47;4.57;;;2.22;;
76131;SDS011;64877;50.994;13.650;2023-05-10T12:21:13;6.22;;;2.40;;
76131;SDS011;64877;50.994;13.650;2023-05-10T12:23:40;4.88;;;2.42;;
76131;SDS011;64877;50.994;13.650;2023-05-10T12:26:07;4.18;;;2.30;;
76131;SDS011;64877;50.994;13.650;2023-05-10T12:28:34;4.55;;;2.03;;
76131;SDS011;64877;50.994;13.650;2023-05-10T12:31:00;13.18;;;3.45;;
76131;SDS011;64877;50.994;13.650;2023-05-10T12:33:27;4.05;;;2.17;;
76131;SDS011;64877;50.994;13.650;2023-05-10T12:36:00;3.80;;;2.53;;
76131;SDS011;64877;50.994;13.650;2023-05-10T12:38:26;7.00;;;2.30;;
76131;SDS011;64877;50.994;13.650;2023-05-10T12:41:00;3.40;;;2.00;;
76131;SDS011;64877;50.994;13.650;2023-05-10T12:43:27;4.65;;;2.60;;
76131;SDS011;64877;50.994;13.650;2023-05-10T12:45:53;4.05;;;2.13;;
76131;SDS011;64877;50.994;13.650;2023-05-10T12:48:19;5.60;;;2.10;;
76131;SDS011;64877;50.994;13.650;2023-05-10T12:50:45;6.05;;;2.45;;
76131;SDS011;64877;50.994;13.650;2023-05-10T12:53:11;3.42;;;2.20;;
76131;SDS011;64877;50.994;13.650;2023-05-10T12:55:40;2.83;;;1.88;;
76131;SDS011;64877;50.994;13.650;2023-05-10T12:58:05;4.30;;;2.60;;
76131;SDS011;64877;50.994;13.650;2023-05-10T13:00:31;3.80;;;2.13;;
76131;SDS011;64877;50.994;13.650;2023-05-10T13:02:56;3.45;;;1.90;;
76131;SDS011;64877;50.994;13.650;2023-05-10T13:05:22;4.82;;;2.67;;
76131;SDS011;64877;50.994;13.650;2023-05-10T13:07:47;3.20;;;2.28;;
76131;SDS011;64877;50.994;13.650;2023-05-10T13:10:13;3.78;;;2.53;;
76131;SDS011;64877;50.994;13.650;2023-05-10T13:12:38;3.85;;;2.45;;
76131;SDS011;64877;50.994;13.650;2023-05-10T13:15:04;3.22;;;1.98;;
76131;SDS011;64877;50.994;13.650;2023-05-10T13:17:30;6.72;;;1.88;;
76131;SDS011;64877;50.994;13.650;2023-05-10T13:19:55;4.43;;;1.77;;
76131;SDS011;64877;50.994;13.650;2023-05-10T13:22:21;4.57;;;1.90;;
76131;SDS011;64877;50.994;13.650;2023-05-10T13:24:46;5.22;;;2.15;;
76131;SDS011;64877;50.994;13.650;2023-05-10T13:27:12;3.47;;;1.92;;
76131;SDS011;64877;50.994;13.650;2023-05-10T13:29:37;5.22;;;2.20;;
76131;SDS011;64877;50.994;13.650;2023-05-10T13:32:02;5.45;;;2.42;;
76131;SDS011;64877;50.994;13.650;2023-05-10T13:34:28;4.72;;;2.55;;
76131;SDS011;64877;50.994;13.650;2023-05-10T13:36:53;5.75;;;2.38;;
76131;SDS011;64877;50.994;13.650;2023-05-10T13:39:20;3.45;;;2.30;;
76131;SDS011;64877;50.994;13.650;2023-05-10T13:41:46;4.10;;;2.30;;
76131;SDS011;64877;50.994;13.650;2023-05-10T13:44:12;3.35;;;2.00;;
76131;SDS011;64877;50.994;13.650;2023-05-10T13:49:04;3.50;;;1.95;;
76131;SDS011;64877;50.994;13.650;2023-05-10T13:51:30;6.50;;;2.10;;
76131;SDS011;64877;50.994;13.650;2023-05-10T13:53:56;5.95;;;2.33;;
76131;SDS011;64877;50.994;13.650;2023-05-10T13:56:22;11.05;;;2.20;;
76131;SDS011;64877;50.994;13.650;2023-05-10T13:58:47;5.63;;;2.15;;
76131;SDS011;64877;50.994;13.650;2023-05-10T14:01:13;5.35;;;2.08;;
76131;SDS011;64877;50.994;13.650;2023-05-10T14:03:38;8.98;;;2.42;;
76131;SDS011;64877;50.994;13.650;2023-05-10T14:06:04;4.30;;;2.28;;
76131;SDS011;64877;50.994;13.650;2023-05-10T14:08:29;6.93;;;2.50;;
76131;SDS011;64877;50.994;13.650;2023-05-10T14:10:54;4.18;;;2.83;;
76131;SDS011;64877;50.994;13.650;2023-05-10T14:13:21;5.13;;;2.72;;
76131;SDS011;64877;50.994;13.650;2023-05-10T14:15:46;4.25;;;2.55;;
76131;SDS011;64877;50.994;13.650;2023-05-10T14:18:12;10.63;;;4.20;;
76131;SDS011;64877;50.994;13.650;2023-05-10T14:20:37;25.08;;;9.43;;
76131;SDS011;64877;50.994;13.650;2023-05-10T14:23:03;14.77;;;5.75;;
76131;SDS011;64877;50.994;13.650;2023-05-10T14:25:28;11.77;;;4.55;;
76131;SDS011;64877;50.994;13.650;2023-05-10T14:27:53;9.95;;;3.47;;
76131;SDS011;64877;50.994;13.650;2023-05-10T14:30:19;8.63;;;2.72;;
76131;SDS011;64877;50.994;13.650;2023-05-10T14:32:45;7.32;;;2.88;;
76131;SDS011;64877;50.994;13.650;2023-05-10T14:35:11;6.30;;;2.50;;
76131;SDS011;64877;50.994;13.650;2023-05-10T14:37:37;5.15;;;2.67;;
76131;SDS011;64877;50.994;13.650;2023-05-10T14:40:03;6.00;;;2.78;;
76131;SDS011;64877;50.994;13.650;2023-05-10T14:42:29;4.75;;;2.42;;
76131;SDS011;64877;50.994;13.650;2023-05-10T14:44:55;3.10;;;1.92;;
76131;SDS011;64877;50.994;13.650;2023-05-10T14:47:21;5.68;;;2.05;;
76131;SDS011;64877;50.994;13.650;2023-05-10T14:49:46;5.38;;;2.00;;
76131;SDS011;64877;50.994;13.650;2023-05-10T14:52:12;4.05;;;2.20;;
76131;SDS011;64877;50.994;13.650;2023-05-10T14:54:37;3.55;;;2.00;;
76131;SDS011;64877;50.994;13.650;2023-05-10T14:57:03;2.63;;;1.80;;
76131;SDS011;64877;50.994;13.650;2023-05-10T14:59:28;5.22;;;1.95;;
76131;SDS011;64877;50.994;13.650;2023-05-10T15:01:54;3.63;;;1.90;;
76131;SDS011;64877;50.994;13.650;2023-05-10T15:04:19;5.93;;;1.63;;
76131;SDS011;64877;50.994;13.650;2023-05-10T15:06:46;6.22;;;2.00;;
76131;SDS011;64877;50.994;13.650;2023-05-10T15:09:11;4.68;;;1.92;;